createdAt,value
2017-07-14T00:01:15.359Z,15.96
2017-07-14T00:03:43.722Z,16.05
2017-07-14T00:06:12.395Z,15.95
2017-07-14T00:08:40.725Z,15.81
2017-07-14T00:11:09.078Z,15.73
2017-07-14T00:13:38.209Z,15.72
2017-07-14T00:16:06.548Z,15.65
2017-07-14T00:18:34.900Z,15.66
2017-07-14T00:21:03.509Z,15.79
2017-07-14T00:23:31.869Z,15.79
2017-07-14T00:26:00.191Z,15.64
2017-07-14T00:28:28.885Z,15.67
2017-07-14T00:30:57.236Z,15.59
2017-07-14T00:33:25.611Z,15.45
2017-07-14T00:35:54.702Z,15.35
2017-07-14T00:38:23.063Z,15.34
2017-07-14T00:40:51.437Z,15.28
2017-07-14T00:43:20.172Z,15.13
2017-07-14T00:45:48.520Z,15.09
2017-07-14T00:48:16.897Z,15.17
2017-07-14T00:50:45.599Z,15.05
2017-07-14T00:53:13.956Z,14.95
2017-07-14T00:55:42.313Z,14.97
2017-07-14T00:58:11.266Z,15.06
2017-07-14T01:00:39.604Z,15.06
2017-07-14T01:03:07.959Z,14.99
2017-07-14T01:05:36.602Z,15.06
2017-07-14T01:08:05.708Z,15.17
2017-07-14T01:10:34.054Z,15.21
2017-07-14T01:13:02.719Z,15.12
2017-07-14T01:15:31.068Z,14.86
2017-07-14T01:17:59.412Z,14.92
2017-07-14T01:20:28.990Z,14.91
2017-07-14T01:22:57.361Z,14.96
2017-07-14T01:25:25.707Z,15.00
2017-07-14T01:27:54.371Z,14.97
2017-07-14T01:30:23.468Z,14.94
2017-07-14T01:32:52.571Z,14.90
2017-07-14T01:35:22.023Z,14.84
2017-07-14T01:37:50.355Z,14.72
2017-07-14T01:40:19.447Z,14.73
2017-07-14T01:42:49.075Z,14.84
2017-07-14T01:45:17.442Z,14.94
2017-07-14T01:47:45.786Z,14.97
2017-07-14T01:50:14.439Z,14.95
2017-07-14T01:52:42.765Z,15.11
2017-07-14T01:55:11.100Z,15.16
2017-07-14T01:57:39.748Z,15.11
2017-07-14T02:00:08.089Z,15.01
2017-07-14T02:02:36.420Z,15.03
2017-07-14T02:05:05.417Z,15.03
2017-07-14T02:07:33.766Z,15.04
2017-07-14T02:10:02.904Z,15.05
2017-07-14T02:12:31.599Z,14.98
2017-07-14T02:14:59.934Z,15.03
2017-07-14T02:17:28.278Z,15.22
2017-07-14T02:19:57.096Z,15.21
2017-07-14T02:22:25.417Z,15.05
2017-07-14T02:24:53.759Z,14.80
2017-07-14T02:27:22.758Z,14.75
2017-07-14T02:29:51.116Z,14.53
2017-07-14T02:32:19.471Z,14.47
2017-07-14T02:34:48.389Z,14.56
2017-07-14T02:37:16.765Z,14.68
2017-07-14T02:39:45.098Z,14.68
2017-07-14T02:42:13.725Z,14.58
2017-07-14T02:44:42.076Z,14.71
2017-07-14T02:47:11.261Z,14.78
2017-07-14T02:49:40.118Z,14.86
2017-07-14T02:52:08.489Z,14.87
2017-07-14T02:54:36.846Z,14.95
2017-07-14T02:57:05.573Z,15.08
2017-07-14T02:59:33.964Z,15.08
2017-07-14T03:02:02.288Z,14.94
2017-07-14T03:04:30.935Z,14.79
2017-07-14T03:06:59.291Z,14.74
2017-07-14T03:09:27.635Z,14.83
2017-07-14T03:11:56.700Z,14.91
2017-07-14T03:14:25.058Z,14.89
2017-07-14T03:16:53.412Z,14.79
2017-07-14T03:19:22.313Z,14.72
2017-07-14T03:21:50.645Z,14.38
2017-07-14T03:24:19.798Z,14.26
2017-07-14T03:26:48.581Z,13.95
2017-07-14T03:29:16.917Z,14.08
2017-07-14T03:31:45.252Z,14.19
2017-07-14T03:34:14.265Z,14.34
2017-07-14T03:36:42.623Z,14.41
2017-07-14T03:39:10.972Z,14.50
2017-07-14T03:41:39.867Z,14.62
2017-07-14T03:44:08.203Z,14.40
2017-07-14T03:46:36.528Z,14.29
2017-07-14T03:49:05.923Z,14.60
2017-07-14T03:51:34.293Z,14.74
2017-07-14T03:54:03.391Z,14.57
2017-07-14T03:56:33.224Z,14.53
2017-07-14T03:59:01.556Z,14.54
2017-07-14T04:01:29.904Z,14.49
2017-07-14T04:03:58.544Z,14.56
2017-07-14T04:06:27.671Z,14.57
2017-07-14T04:08:56.010Z,14.61
2017-07-14T04:11:24.943Z,14.64
2017-07-14T04:13:53.316Z,14.62
2017-07-14T04:16:21.653Z,14.75
2017-07-14T04:18:50.817Z,14.92
2017-07-14T04:21:19.147Z,15.07
2017-07-14T04:23:47.500Z,14.97
2017-07-14T04:26:16.233Z,15.03
2017-07-14T04:28:44.590Z,15.13
2017-07-14T04:31:13.705Z,14.97
2017-07-14T04:33:42.489Z,14.95
2017-07-14T04:36:10.835Z,14.62
2017-07-14T04:38:39.196Z,14.88
2017-07-14T04:41:08.136Z,14.87
2017-07-14T04:43:36.487Z,15.07
2017-07-14T04:46:04.824Z,15.33
2017-07-14T04:48:33.459Z,15.54
2017-07-14T04:51:01.804Z,15.67
2017-07-14T04:53:30.149Z,15.77
2017-07-14T04:55:58.805Z,15.85
2017-07-14T04:58:27.127Z,15.94
2017-07-14T05:00:55.453Z,16.09
2017-07-14T05:03:24.443Z,16.35
2017-07-14T05:05:52.779Z,16.52
2017-07-14T05:08:21.125Z,16.52
2017-07-14T05:10:50.520Z,16.30
2017-07-14T05:13:18.887Z,16.16
2017-07-14T05:15:47.257Z,16.14
2017-07-14T05:18:15.988Z,16.30
2017-07-14T05:20:44.358Z,16.49
2017-07-14T05:23:13.474Z,16.63
2017-07-14T05:25:42.444Z,16.68
2017-07-14T05:28:10.793Z,17.02
2017-07-14T05:30:39.131Z,17.22
2017-07-14T05:33:07.809Z,17.38
2017-07-14T05:35:36.162Z,17.58
2017-07-14T05:38:04.500Z,17.76
2017-07-14T05:40:33.328Z,17.95
2017-07-14T05:43:01.677Z,17.81
2017-07-14T05:45:30.021Z,18.05
2017-07-14T05:47:59.180Z,18.28
2017-07-14T05:50:27.527Z,18.50
2017-07-14T05:52:55.866Z,18.48
2017-07-14T05:55:24.465Z,18.41
2017-07-14T05:57:52.803Z,18.57
2017-07-14T06:00:21.162Z,18.76
2017-07-14T06:02:50.086Z,18.88
2017-07-14T06:05:18.409Z,18.90
2017-07-14T06:07:46.786Z,19.02
2017-07-14T06:10:15.684Z,19.21
2017-07-14T06:12:44.074Z,19.17
2017-07-14T06:15:12.417Z,19.63
2017-07-14T06:17:41.193Z,19.89
2017-07-14T06:20:09.555Z,20.20
2017-07-14T06:22:38.693Z,20.39
2017-07-14T06:25:07.496Z,20.66
2017-07-14T06:27:35.847Z,20.81
2017-07-14T06:30:04.186Z,20.83
2017-07-14T06:32:33.105Z,20.86
2017-07-14T06:35:01.455Z,20.80
2017-07-14T06:37:29.794Z,20.88
2017-07-14T06:39:58.452Z,20.88
2017-07-14T06:42:26.815Z,20.88
2017-07-14T06:44:55.176Z,20.86
2017-07-14T06:47:23.787Z,20.87
2017-07-14T06:49:52.117Z,20.56
2017-07-14T06:52:20.476Z,20.26
2017-07-14T06:54:49.667Z,20.33
2017-07-14T06:57:18.014Z,20.38
2017-07-14T06:59:47.122Z,20.73
2017-07-14T07:02:15.739Z,21.07
2017-07-14T07:04:44.061Z,21.02
2017-07-14T07:07:12.404Z,20.86
2017-07-14T07:09:41.024Z,20.93
2017-07-14T07:12:10.152Z,21.26
2017-07-14T07:14:38.516Z,21.34
2017-07-14T07:17:07.619Z,21.58
2017-07-14T07:19:35.960Z,21.38
2017-07-14T07:22:04.321Z,21.38
2017-07-14T07:24:33.002Z,21.25
2017-07-14T07:27:01.338Z,21.39
2017-07-14T07:29:29.665Z,21.53
2017-07-14T07:31:58.498Z,21.45
2017-07-14T07:34:26.843Z,21.56
2017-07-14T07:36:55.225Z,21.35
2017-07-14T07:39:24.485Z,21.27
2017-07-14T07:41:52.848Z,21.07
2017-07-14T07:44:21.204Z,21.36
2017-07-14T07:46:56.206Z,21.26
2017-07-14T07:49:25.486Z,20.95
2017-07-14T07:51:53.836Z,21.36
2017-07-14T07:54:22.509Z,21.66
2017-07-14T07:56:51.625Z,21.53
2017-07-14T07:59:19.955Z,21.96
2017-07-14T08:01:48.698Z,22.27
2017-07-14T08:04:17.017Z,22.12
2017-07-14T08:06:45.371Z,21.91
2017-07-14T08:09:14.002Z,21.90
2017-07-14T08:11:42.343Z,22.08
2017-07-14T08:14:10.687Z,22.24
2017-07-14T08:16:39.342Z,21.79
2017-07-14T08:19:07.715Z,21.72
2017-07-14T08:21:36.068Z,21.86
2017-07-14T08:24:05.425Z,21.80
2017-07-14T08:26:33.779Z,21.93
2017-07-14T08:29:02.135Z,22.33
2017-07-14T08:31:30.751Z,22.64
2017-07-14T08:33:59.116Z,22.74
2017-07-14T08:36:27.472Z,22.65
2017-07-14T08:38:56.306Z,22.55
2017-07-14T08:41:24.645Z,22.92
2017-07-14T08:43:54.005Z,22.62
2017-07-14T08:46:22.863Z,22.64
2017-07-14T08:48:51.211Z,23.15
2017-07-14T08:51:19.560Z,23.60
2017-07-14T08:53:48.211Z,23.87
2017-07-14T08:56:16.550Z,24.18
2017-07-14T08:58:44.889Z,24.26
2017-07-14T09:01:14.280Z,23.20
2017-07-14T09:03:42.613Z,23.12
2017-07-14T09:06:10.961Z,23.50
2017-07-14T09:08:39.947Z,23.68
2017-07-14T09:11:08.285Z,23.22
2017-07-14T09:13:36.640Z,23.32
2017-07-14T09:16:05.255Z,24.04
2017-07-14T09:18:33.603Z,24.49
2017-07-14T09:21:01.949Z,24.86
2017-07-14T09:23:30.834Z,25.10
2017-07-14T09:25:59.203Z,25.37
2017-07-14T09:28:27.564Z,25.82
2017-07-14T09:30:56.492Z,26.31
2017-07-14T09:33:24.840Z,26.42
2017-07-14T09:35:53.180Z,26.35
2017-07-14T09:38:22.127Z,26.58
2017-07-14T09:40:50.488Z,26.90
2017-07-14T09:43:18.829Z,27.05
2017-07-14T09:45:48.009Z,26.78
2017-07-14T09:48:16.352Z,26.25
2017-07-14T09:50:45.463Z,25.56
2017-07-14T09:53:14.451Z,25.72
2017-07-14T09:55:42.824Z,25.66
2017-07-14T09:58:11.959Z,26.30
2017-07-14T10:00:40.920Z,26.39
2017-07-14T10:03:09.254Z,25.77
2017-07-14T10:05:37.583Z,25.77
2017-07-14T10:08:06.221Z,25.64
2017-07-14T10:10:34.556Z,25.66
2017-07-14T10:13:02.906Z,25.62
2017-07-14T10:15:31.595Z,26.30
2017-07-14T10:17:59.929Z,26.97
2017-07-14T10:20:28.258Z,27.41
2017-07-14T10:23:09.963Z,27.61
2017-07-14T10:25:38.324Z,27.97
2017-07-14T10:28:07.451Z,28.37
2017-07-14T10:30:36.427Z,28.57
2017-07-14T10:33:04.757Z,29.17
2017-07-14T10:35:33.108Z,29.33
2017-07-14T10:38:01.871Z,29.26
2017-07-14T10:40:30.222Z,28.70
2017-07-14T10:42:58.561Z,28.71
2017-07-14T10:45:27.327Z,29.44
2017-07-14T10:47:55.659Z,29.77
2017-07-14T10:50:24.018Z,29.78
2017-07-14T10:52:52.865Z,30.02
2017-07-14T10:55:21.201Z,30.24
2017-07-14T10:57:49.535Z,30.34
2017-07-14T11:00:18.152Z,30.44
2017-07-14T11:02:46.723Z,30.25
2017-07-14T11:05:15.057Z,29.74
2017-07-14T11:07:43.870Z,29.40
2017-07-14T11:10:12.215Z,29.05
2017-07-14T11:12:40.554Z,28.86
2017-07-14T11:15:09.718Z,28.64
2017-07-14T11:17:38.087Z,28.08
2017-07-14T11:20:07.198Z,27.40
2017-07-14T11:22:35.911Z,26.89
2017-07-14T11:25:04.250Z,26.71
2017-07-14T11:27:32.610Z,26.71
2017-07-14T11:30:02.072Z,26.78
2017-07-14T11:32:30.420Z,26.52
2017-07-14T11:34:58.771Z,26.35
2017-07-14T11:37:27.701Z,26.43
2017-07-14T11:39:56.100Z,26.36
2017-07-14T11:42:24.508Z,26.14
2017-07-14T11:44:53.165Z,25.58
2017-07-14T11:47:21.537Z,25.41
2017-07-14T11:49:49.869Z,25.72
2017-07-14T11:52:18.785Z,25.59
2017-07-14T11:54:47.123Z,25.75
2017-07-14T11:57:15.452Z,25.59
2017-07-14T11:59:44.441Z,25.98
2017-07-14T12:02:12.817Z,26.45
2017-07-14T12:04:41.159Z,26.37
2017-07-14T12:07:10.014Z,26.49
2017-07-14T12:09:38.393Z,26.88
2017-07-14T12:12:06.738Z,27.28
2017-07-14T12:14:35.521Z,27.75
2017-07-14T12:17:03.870Z,27.88
2017-07-14T12:19:32.235Z,28.14
2017-07-14T12:22:01.312Z,28.59
2017-07-14T12:24:29.687Z,28.95
2017-07-14T12:26:58.019Z,28.50
2017-07-14T12:29:27.647Z,27.92
2017-07-14T12:31:55.991Z,28.24
2017-07-14T12:34:24.337Z,27.44
2017-07-14T12:36:52.991Z,26.77
2017-07-14T12:39:21.353Z,26.66
2017-07-14T12:41:49.710Z,26.49
2017-07-14T12:44:18.431Z,26.95
2017-07-14T12:46:47.526Z,26.29
2017-07-14T12:49:16.617Z,26.43
2017-07-14T12:51:45.289Z,25.96
2017-07-14T12:54:13.621Z,26.08
2017-07-14T12:56:41.962Z,26.40
2017-07-14T12:59:10.855Z,26.79
2017-07-14T13:01:39.181Z,27.07
2017-07-14T13:04:07.523Z,27.17
2017-07-14T13:06:36.508Z,27.25
2017-07-14T13:09:04.882Z,27.31
2017-07-14T13:11:33.997Z,27.65
2017-07-14T13:14:02.885Z,27.79
2017-07-14T13:16:31.234Z,27.87
2017-07-14T13:18:59.585Z,28.41
2017-07-14T13:21:28.235Z,28.46
2017-07-14T13:23:56.614Z,28.61
2017-07-14T13:26:24.990Z,28.73
2017-07-14T13:28:53.853Z,28.78
2017-07-14T13:31:22.206Z,28.91
2017-07-14T13:33:50.550Z,29.09
2017-07-14T13:36:19.532Z,29.03
2017-07-14T13:38:47.919Z,28.99
2017-07-14T13:41:16.258Z,28.91
2017-07-14T13:43:45.188Z,28.54
2017-07-14T13:46:13.554Z,28.36
2017-07-14T13:48:41.906Z,28.35
2017-07-14T13:51:10.573Z,28.12
2017-07-14T13:53:38.904Z,28.08
2017-07-14T13:56:07.258Z,28.10
2017-07-14T13:58:36.887Z,28.04
2017-07-14T14:01:05.222Z,28.06
2017-07-14T14:03:33.568Z,27.89
2017-07-14T14:06:02.212Z,27.94
2017-07-14T14:08:30.550Z,28.04
2017-07-14T14:10:58.907Z,27.93
2017-07-14T14:13:27.766Z,27.80
2017-07-14T14:15:56.140Z,28.04
2017-07-14T14:18:24.488Z,28.34
2017-07-14T14:20:53.342Z,28.34
2017-07-14T14:23:21.685Z,28.26
2017-07-14T14:25:50.006Z,27.91
2017-07-14T14:28:18.707Z,27.41
2017-07-14T14:30:47.050Z,26.58
2017-07-14T14:33:15.404Z,26.37
2017-07-14T14:35:44.291Z,25.85
2017-07-14T14:38:12.663Z,25.85
2017-07-14T14:40:41.814Z,25.42
2017-07-14T14:43:10.567Z,25.05
2017-07-14T14:45:38.910Z,25.59
2017-07-14T14:48:08.089Z,25.95
2017-07-14T14:50:36.688Z,26.11
2017-07-14T14:53:05.028Z,26.15
2017-07-14T14:55:33.373Z,26.53
2017-07-14T14:58:02.428Z,26.33
2017-07-14T15:00:30.767Z,26.55
2017-07-14T15:02:59.102Z,26.84
2017-07-14T15:05:27.822Z,26.57
2017-07-14T15:07:56.915Z,26.76
2017-07-14T15:10:26.014Z,26.91
2017-07-14T15:12:55.645Z,26.41
2017-07-14T15:15:23.971Z,26.20
2017-07-14T15:17:52.326Z,26.31
2017-07-14T15:20:21.177Z,26.61
2017-07-14T15:22:50.284Z,26.88
2017-07-14T15:25:18.613Z,26.86
2017-07-14T15:27:47.367Z,27.05
2017-07-14T15:30:15.685Z,27.10
2017-07-14T15:32:44.022Z,27.18
2017-07-14T15:35:12.634Z,27.22
2017-07-14T15:37:40.954Z,27.19
2017-07-14T15:40:09.330Z,27.21
2017-07-14T15:42:38.330Z,26.82
2017-07-14T15:45:07.437Z,26.66
2017-07-14T15:47:35.770Z,26.77
2017-07-14T15:50:04.514Z,26.87
2017-07-14T15:52:32.854Z,26.75
2017-07-14T15:55:01.184Z,26.66
2017-07-14T15:57:29.939Z,26.79
2017-07-14T15:59:58.266Z,26.70
2017-07-14T16:02:26.606Z,26.51
2017-07-14T16:04:55.381Z,26.43
2017-07-14T16:07:23.712Z,26.41
2017-07-14T16:09:52.057Z,26.46
2017-07-14T16:12:20.849Z,26.29
2017-07-14T16:14:49.180Z,26.42
2017-07-14T16:17:17.524Z,26.38
2017-07-14T16:19:46.223Z,26.42
2017-07-14T16:22:14.568Z,26.05
2017-07-14T16:24:42.917Z,25.94
2017-07-14T16:27:11.779Z,25.92
2017-07-14T16:29:40.137Z,25.39
2017-07-14T16:32:08.477Z,25.44
2017-07-14T16:34:37.186Z,25.29
2017-07-14T16:37:05.515Z,25.34
2017-07-14T16:39:33.883Z,25.30
2017-07-14T16:42:02.513Z,25.19
2017-07-14T16:44:30.891Z,24.89
2017-07-14T16:46:59.310Z,24.85
2017-07-14T16:49:28.321Z,24.60
2017-07-14T16:51:56.654Z,25.06
2017-07-14T16:54:25.016Z,24.91
2017-07-14T16:56:53.635Z,24.79
2017-07-14T16:59:21.971Z,24.90
2017-07-14T17:01:50.320Z,24.91
2017-07-14T17:04:18.997Z,25.08
2017-07-14T17:06:47.359Z,25.03
2017-07-14T17:09:15.686Z,25.03
2017-07-14T17:11:44.806Z,25.02
2017-07-14T17:14:13.189Z,25.06
2017-07-14T17:16:41.532Z,24.90
2017-07-14T17:19:10.435Z,24.74
2017-07-14T17:21:38.765Z,24.62
2017-07-14T17:24:07.120Z,24.59
2017-07-14T17:26:35.731Z,24.60
2017-07-14T17:29:04.072Z,24.67
2017-07-14T17:31:33.177Z,24.61
2017-07-14T17:34:02.162Z,24.67
2017-07-14T17:36:30.515Z,24.65
2017-07-14T17:38:59.617Z,24.55
2017-07-14T17:41:29.043Z,24.42
2017-07-14T17:43:57.390Z,24.30
2017-07-14T17:46:25.768Z,24.29
2017-07-14T17:48:54.462Z,24.28
2017-07-14T17:51:22.788Z,24.29
2017-07-14T17:53:51.126Z,24.02
2017-07-14T17:56:21.085Z,23.94
2017-07-14T17:58:49.418Z,23.90
2017-07-14T18:01:17.765Z,23.83
2017-07-14T18:03:46.432Z,23.74
2017-07-14T18:06:14.769Z,23.87
2017-07-14T18:08:43.886Z,23.86
2017-07-14T18:11:12.669Z,23.95
2017-07-14T18:13:41.003Z,23.90
2017-07-14T18:16:09.342Z,24.00
2017-07-14T18:18:38.304Z,23.90
2017-07-14T18:21:06.626Z,24.04
2017-07-14T18:23:34.969Z,23.85
2017-07-14T18:26:03.643Z,23.01
2017-07-14T18:28:32.750Z,22.71
2017-07-14T18:31:01.102Z,22.51
2017-07-14T18:33:30.009Z,22.46
2017-07-14T18:35:58.392Z,22.31
2017-07-14T18:38:27.518Z,22.04
2017-07-14T18:40:56.477Z,21.91
2017-07-14T18:43:24.810Z,21.82
2017-07-14T18:45:53.197Z,21.71
2017-07-14T18:48:21.915Z,21.51
2017-07-14T18:50:50.268Z,21.36
2017-07-14T18:53:18.655Z,21.40
2017-07-14T18:55:47.389Z,21.21
2017-07-14T18:58:15.754Z,21.11
2017-07-14T19:00:44.992Z,21.09
2017-07-14T19:03:13.676Z,21.14
2017-07-14T19:05:42.058Z,21.06
2017-07-14T19:08:10.412Z,21.03
2017-07-14T19:10:39.057Z,20.49
2017-07-14T19:13:07.408Z,20.45
2017-07-14T19:15:35.750Z,20.33
2017-07-14T19:18:05.387Z,20.14
2017-07-14T19:20:33.775Z,20.27
2017-07-14T19:23:02.161Z,20.06
2017-07-14T19:25:31.431Z,19.94
2017-07-14T19:27:59.779Z,19.84
2017-07-14T19:30:28.887Z,19.87
2017-07-14T19:32:57.559Z,19.79
2017-07-14T19:35:26.659Z,19.85
2017-07-14T19:37:55.753Z,20.04
2017-07-14T19:40:24.567Z,20.02
2017-07-14T19:42:52.927Z,20.02
2017-07-14T19:45:21.284Z,20.07
2017-07-14T19:47:50.244Z,20.00
2017-07-14T19:50:18.598Z,19.92
2017-07-14T19:52:46.963Z,19.67
2017-07-14T19:55:15.875Z,19.82
2017-07-14T19:57:44.242Z,19.63
2017-07-14T20:00:12.593Z,19.77
2017-07-14T20:02:41.337Z,19.84
2017-07-14T20:05:09.690Z,19.94
2017-07-14T20:07:38.798Z,19.89
2017-07-14T20:10:07.994Z,19.99
2017-07-14T20:12:36.356Z,19.86
2017-07-14T20:15:04.725Z,20.04
2017-07-14T20:17:33.659Z,20.14
2017-07-14T20:20:02.014Z,20.08
2017-07-14T20:22:30.346Z,19.79
2017-07-14T20:24:59.081Z,19.88
2017-07-14T20:27:27.452Z,19.92
2017-07-14T20:29:56.608Z,19.93
2017-07-14T20:32:25.384Z,19.57
2017-07-14T20:34:53.739Z,19.38
2017-07-14T20:37:22.086Z,19.33
2017-07-14T20:39:50.716Z,19.43
2017-07-14T20:42:19.065Z,19.63
2017-07-14T20:44:47.417Z,19.67
2017-07-14T20:47:16.256Z,19.50
2017-07-14T20:49:44.620Z,19.35
2017-07-14T20:52:13.006Z,19.37
2017-07-14T20:54:41.971Z,19.36
2017-07-14T20:57:10.330Z,19.34
2017-07-14T20:59:38.666Z,19.37
2017-07-14T21:02:07.531Z,19.38
2017-07-14T21:04:35.878Z,19.36
2017-07-14T21:07:04.227Z,19.42
2017-07-14T21:09:32.983Z,19.39
2017-07-14T21:12:01.403Z,19.45
2017-07-14T21:14:29.761Z,19.45
2017-07-14T21:16:58.591Z,19.56
2017-07-14T21:19:26.929Z,19.64
2017-07-14T21:21:55.294Z,19.50
2017-07-14T21:24:24.074Z,19.44
2017-07-14T21:26:52.441Z,19.54
2017-07-14T21:29:20.806Z,19.55
2017-07-14T21:31:49.590Z,19.53
2017-07-14T21:34:17.939Z,19.61
2017-07-14T21:36:46.274Z,19.50
2017-07-14T21:39:15.366Z,19.34
2017-07-14T21:41:43.738Z,19.01
2017-07-14T21:44:12.842Z,18.79
2017-07-14T21:46:42.353Z,18.82
2017-07-14T21:49:10.691Z,18.90
2017-07-14T21:51:39.039Z,19.07
2017-07-14T21:54:07.706Z,19.01
2017-07-14T21:56:36.058Z,18.55
2017-07-14T21:59:04.407Z,18.62
2017-07-14T22:01:33.269Z,18.41
2017-07-14T22:04:01.635Z,18.48
2017-07-14T22:06:29.985Z,18.58
2017-07-14T22:08:58.818Z,18.71
2017-07-14T22:11:27.172Z,18.76
2017-07-14T22:13:56.283Z,18.51
2017-07-14T22:16:24.957Z,18.56
2017-07-14T22:18:53.312Z,18.68
2017-07-14T22:21:21.661Z,18.66
2017-07-14T22:23:50.715Z,18.33
2017-07-14T22:26:19.054Z,18.37
2017-07-14T22:28:47.431Z,18.24
2017-07-14T22:31:16.353Z,18.20
2017-07-14T22:33:44.696Z,18.09
2017-07-14T22:36:13.825Z,18.03
2017-07-14T22:38:42.481Z,18.01
2017-07-14T22:41:10.821Z,17.96
2017-07-14T22:43:39.154Z,18.02
2017-07-14T22:46:08.012Z,17.84
2017-07-14T22:48:36.352Z,18.01
2017-07-14T22:51:04.718Z,18.06
2017-07-14T22:53:34.281Z,18.15
2017-07-14T22:56:02.606Z,18.13
2017-07-14T22:58:30.946Z,18.09
2017-07-14T23:00:59.595Z,18.21
2017-07-14T23:03:27.949Z,18.18
2017-07-14T23:05:56.286Z,18.19
2017-07-14T23:08:25.356Z,18.24
2017-07-14T23:10:53.694Z,18.37
2017-07-14T23:13:22.063Z,18.12
2017-07-14T23:15:51.513Z,18.07
2017-07-14T23:18:19.855Z,18.20
2017-07-14T23:20:48.951Z,18.14
2017-07-14T23:23:17.741Z,18.15
2017-07-14T23:25:46.079Z,17.98
2017-07-14T23:28:14.421Z,17.99
2017-07-14T23:30:43.274Z,18.13
2017-07-14T23:33:11.621Z,18.00
2017-07-14T23:35:39.957Z,18.20
2017-07-14T23:38:08.835Z,18.39
2017-07-14T23:40:37.165Z,18.15
2017-07-14T23:43:05.507Z,18.18
2017-07-14T23:45:34.190Z,18.18
2017-07-14T23:48:03.294Z,18.27
2017-07-14T23:50:31.635Z,18.31
2017-07-14T23:53:00.370Z,18.11
2017-07-14T23:55:28.791Z,18.09
2017-07-14T23:57:57.123Z,18.10
